createdAt,value
2022-08-02T00:00:38.815Z,101144.03
2022-08-02T00:01:55.271Z,101144.19
2022-08-02T00:03:11.633Z,101146.45
2022-08-02T00:04:29.959Z,101143.00
2022-08-02T00:05:53.555Z,101145.16
2022-08-02T00:07:07.914Z,101146.70
2022-08-02T00:08:24.344Z,101140.69
2022-08-02T00:09:40.743Z,101143.70
2022-08-02T00:10:57.114Z,101141.00
2022-08-02T00:12:14.092Z,101139.20
2022-08-02T00:13:30.504Z,101142.26
2022-08-02T00:14:46.916Z,101142.78
2022-08-02T00:16:05.289Z,101143.00
2022-08-02T00:17:21.756Z,101147.02
2022-08-02T00:18:40.469Z,101143.09
2022-08-02T00:19:57.586Z,101141.87
2022-08-02T00:21:15.997Z,101144.70
2022-08-02T00:22:33.078Z,101142.78
2022-08-02T00:24:27.810Z,101141.23
2022-08-02T00:25:11.668Z,101143.41
2022-08-02T00:26:28.050Z,101142.30
2022-08-02T00:27:44.429Z,101145.51
2022-08-02T00:29:00.812Z,101142.87
2022-08-02T00:30:19.181Z,101146.86
2022-08-02T00:31:36.772Z,101152.59
2022-08-02T00:32:53.142Z,101152.91
2022-08-02T00:34:28.881Z,101156.77
2022-08-02T00:35:30.902Z,101162.78
2022-08-02T00:36:47.294Z,101161.52
2022-08-02T00:38:03.952Z,101165.52
2022-08-02T00:39:35.231Z,101164.17
2022-08-02T00:40:43.497Z,101167.22
2022-08-02T00:42:01.876Z,101162.01
2022-08-02T00:43:18.257Z,101164.16
2022-08-02T00:44:34.945Z,101161.42
2022-08-02T00:46:03.090Z,101161.43
2022-08-02T00:47:15.012Z,101160.46
2022-08-02T00:48:33.809Z,101156.05
2022-08-02T00:49:50.900Z,101156.12
2022-08-02T00:51:07.569Z,101156.52
2022-08-02T00:52:25.887Z,101157.67
2022-08-02T00:53:44.221Z,101153.06
2022-08-02T00:55:02.564Z,101151.62
2022-08-02T00:56:18.952Z,101153.00
2022-08-02T00:57:35.592Z,101151.72
2022-08-02T00:58:52.022Z,101147.11
2022-08-02T01:00:08.395Z,101140.45
2022-08-02T01:01:26.782Z,101145.34
2022-08-02T01:02:43.111Z,101145.34
2022-08-02T01:04:00.733Z,101143.09
2022-08-02T01:05:17.096Z,101141.48
2022-08-02T01:06:33.613Z,101144.70
2022-08-02T01:07:49.975Z,101143.83
2022-08-02T01:09:06.364Z,101145.18
2022-08-02T01:10:23.007Z,101146.56
2022-08-02T01:11:39.395Z,101149.30
2022-08-02T01:12:55.737Z,101146.40
2022-08-02T01:14:12.157Z,101150.16
2022-08-02T01:15:36.228Z,101147.20
2022-08-02T01:16:49.756Z,101148.91
2022-08-02T01:18:06.116Z,101154.70
2022-08-02T01:19:22.519Z,101154.53
2022-08-02T01:20:38.892Z,101159.11
2022-08-02T01:21:55.260Z,101162.10
2022-08-02T01:23:11.900Z,101155.25
2022-08-02T01:24:28.320Z,101153.64
2022-08-02T01:25:44.722Z,101154.28
2022-08-02T01:27:01.098Z,101152.77
2022-08-02T01:28:17.454Z,101153.73
2022-08-02T01:29:34.145Z,101147.14
2022-08-02T01:30:50.503Z,101143.92
2022-08-02T01:32:08.792Z,101148.48
2022-08-02T01:33:25.445Z,101146.81
2022-08-02T01:34:41.826Z,101152.12
2022-08-02T01:35:58.467Z,101146.66
2022-08-02T01:37:14.924Z,101146.33
2022-08-02T01:38:31.288Z,101150.36
2022-08-02T01:39:47.678Z,101145.95
2022-08-02T01:41:04.048Z,101147.62
2022-08-02T01:42:21.689Z,101145.30
2022-08-02T01:43:38.079Z,101149.88
2022-08-02T01:44:54.459Z,101146.17
2022-08-02T01:46:10.829Z,101148.91
2022-08-02T01:47:27.203Z,101150.93
2022-08-02T01:48:43.971Z,101150.67
2022-08-02T01:50:00.340Z,101151.73
2022-08-02T01:51:16.702Z,101150.84
2022-08-02T01:52:34.103Z,101146.16
2022-08-02T01:53:50.581Z,101145.95
2022-08-02T01:55:07.242Z,101141.76
2022-08-02T01:56:28.217Z,101139.83
2022-08-02T01:57:44.594Z,101146.11
2022-08-02T01:59:01.028Z,101144.88
2022-08-02T02:00:17.406Z,101143.92
2022-08-02T02:01:34.097Z,101141.02
2022-08-02T02:02:50.440Z,101140.05
2022-08-02T02:04:06.939Z,101131.53
2022-08-02T02:05:23.308Z,101131.85
2022-08-02T02:06:39.680Z,101127.02
2022-08-02T02:07:56.330Z,101129.70
2022-08-02T02:09:12.758Z,101129.60
2022-08-02T02:10:29.141Z,101131.62
2022-08-02T02:12:14.188Z,101137.58
2022-08-02T02:13:06.712Z,101132.05
2022-08-02T02:14:23.372Z,101133.81
2022-08-02T02:15:40.886Z,101136.39
2022-08-02T02:16:57.964Z,101130.27
2022-08-02T02:18:14.345Z,101131.50
2022-08-02T02:19:30.745Z,101135.48
2022-08-02T02:20:47.395Z,101132.59
2022-08-02T02:22:03.774Z,101129.15
2022-08-02T02:23:21.268Z,101126.67
2022-08-02T02:24:43.367Z,101128.34
2022-08-02T02:26:01.849Z,101124.91
2022-08-02T02:27:20.528Z,101125.41
2022-08-02T02:28:36.909Z,101121.88
2022-08-02T02:29:53.299Z,101122.48
2022-08-02T02:31:11.631Z,101123.20
2022-08-02T02:32:28.001Z,101120.68
2022-08-02T02:33:44.682Z,101121.23
2022-08-02T02:35:01.086Z,101122.03
2022-08-02T02:36:17.461Z,101118.17
2022-08-02T02:37:35.773Z,101114.19
2022-08-02T02:38:52.143Z,101116.08
2022-08-02T02:40:10.754Z,101116.24
2022-08-02T02:41:27.134Z,101115.41
2022-08-02T02:42:49.276Z,101110.55
2022-08-02T02:44:05.975Z,101114.19
2022-08-02T02:45:24.298Z,101107.91
2022-08-02T02:46:40.956Z,101107.33
2022-08-02T02:47:59.269Z,101104.83
2022-08-02T02:49:15.693Z,101106.62
2022-08-02T02:50:32.028Z,101106.62
2022-08-02T02:51:50.349Z,101108.17
2022-08-02T02:53:07.007Z,101108.88
2022-08-02T02:54:30.314Z,101105.23
2022-08-02T02:56:01.899Z,101108.30
2022-08-02T02:57:05.833Z,101104.92
2022-08-02T02:58:29.140Z,101100.73
2022-08-02T02:59:49.428Z,101097.78
2022-08-02T03:01:06.339Z,101093.92
2022-08-02T03:02:22.695Z,101094.30
2022-08-02T03:03:39.127Z,101095.36
2022-08-02T03:04:58.174Z,101095.59
2022-08-02T03:06:14.705Z,101088.12
2022-08-02T03:07:32.254Z,101090.70
2022-08-02T03:08:48.615Z,101087.80
2022-08-02T03:10:05.012Z,101089.73
2022-08-02T03:11:21.691Z,101089.89
2022-08-02T03:12:38.120Z,101089.25
2022-08-02T03:13:54.501Z,101092.05
2022-08-02T03:15:10.895Z,101090.86
2022-08-02T03:16:27.293Z,101090.05
2022-08-02T03:17:43.952Z,101090.12
2022-08-02T03:19:00.343Z,101085.39
2022-08-02T03:20:16.735Z,101084.20
2022-08-02T03:21:33.311Z,101088.44
2022-08-02T03:22:50.062Z,101093.69
2022-08-02T03:24:06.788Z,101096.59
2022-08-02T03:25:23.166Z,101103.98
2022-08-02T03:26:39.607Z,101104.05
2022-08-02T03:27:56.000Z,101102.59
2022-08-02T03:29:14.320Z,101106.72
2022-08-02T03:30:31.018Z,101104.53
2022-08-02T03:31:47.389Z,101103.17
2022-08-02T03:33:03.822Z,101103.50
2022-08-02T03:34:20.211Z,101105.17
2022-08-02T03:35:36.593Z,101107.74
2022-08-02T03:36:53.231Z,101109.29
2022-08-02T03:38:09.713Z,101109.86
2022-08-02T03:39:26.073Z,101105.48
2022-08-02T03:40:44.423Z,101106.30
2022-08-02T03:42:00.825Z,101100.66
2022-08-02T03:43:18.024Z,101100.05
2022-08-02T03:44:34.395Z,101099.86
2022-08-02T03:45:50.796Z,101096.36
2022-08-02T03:47:07.206Z,101088.70
2022-08-02T03:48:33.686Z,101089.66
2022-08-02T03:49:44.857Z,101085.00
2022-08-02T03:51:03.229Z,101079.14
2022-08-02T03:52:19.612Z,101082.27
2022-08-02T03:53:35.986Z,101079.05
2022-08-02T03:54:52.690Z,101085.00
2022-08-02T03:56:09.076Z,101086.06
2022-08-02T03:57:27.421Z,101082.68
2022-08-02T03:58:48.887Z,101083.80
2022-08-02T04:00:07.051Z,101083.91
2022-08-02T04:01:23.735Z,101086.28
2022-08-02T04:02:40.143Z,101082.27
2022-08-02T04:03:56.563Z,101081.55
2022-08-02T04:05:14.913Z,101088.16
2022-08-02T04:06:33.265Z,101080.91
2022-08-02T04:08:34.235Z,101081.17
2022-08-02T04:09:13.095Z,101080.27
2022-08-02T04:10:31.466Z,101085.12
2022-08-02T04:11:49.809Z,101086.22
2022-08-02T04:13:08.166Z,101090.88
2022-08-02T04:14:24.966Z,101091.95
2022-08-02T04:15:43.322Z,101095.90
2022-08-02T04:16:59.709Z,101103.45
2022-08-02T04:18:18.029Z,101106.03
2022-08-02T04:19:36.361Z,101098.95
2022-08-02T04:20:53.050Z,101094.12
2022-08-02T04:22:09.717Z,101100.95
2022-08-02T04:23:26.242Z,101101.43
2022-08-02T04:24:42.938Z,101098.63
2022-08-02T04:26:03.585Z,101100.89
2022-08-02T04:27:50.123Z,101098.15
2022-08-02T04:28:49.694Z,101099.66
2022-08-02T04:30:07.007Z,101098.38
2022-08-02T04:31:24.866Z,101101.59
2022-08-02T04:32:42.945Z,101105.23
2022-08-02T04:34:01.826Z,101108.61
2022-08-02T04:35:20.404Z,101105.64
2022-08-02T04:36:39.137Z,101107.47
2022-08-02T04:38:05.620Z,101111.27
2022-08-02T04:39:20.229Z,101110.62
2022-08-02T04:40:38.616Z,101108.37
2022-08-02T04:41:58.009Z,101104.44
2022-08-02T04:43:14.530Z,101103.12
2022-08-02T04:44:33.171Z,101108.65
2022-08-02T04:45:51.632Z,101109.87
2022-08-02T04:47:08.212Z,101107.55
2022-08-02T04:48:26.571Z,101111.08
2022-08-02T04:49:44.963Z,101113.75
2022-08-02T04:51:03.555Z,101111.84
2022-08-02T04:52:20.144Z,101111.45
2022-08-02T04:53:38.465Z,101109.87
2022-08-02T04:54:56.796Z,101107.70
2022-08-02T04:56:13.266Z,101103.95
2022-08-02T04:57:30.899Z,101109.41
2022-08-02T04:58:48.789Z,101108.22
2022-08-02T05:00:07.308Z,101108.62
2022-08-02T05:01:25.679Z,101104.64
2022-08-02T05:02:44.350Z,101105.43
2022-08-02T05:04:01.019Z,101103.78
2022-08-02T05:05:19.391Z,101105.70
2022-08-02T05:06:35.811Z,101102.33
2022-08-02T05:07:54.201Z,101100.43
2022-08-02T05:09:12.523Z,101106.77
2022-08-02T05:10:31.176Z,101105.50
2022-08-02T05:11:55.101Z,101101.80
2022-08-02T05:13:11.784Z,101101.48
2022-08-02T05:14:30.244Z,101103.31
2022-08-02T05:15:47.671Z,101104.28
2022-08-02T05:17:05.573Z,101110.00
2022-08-02T05:18:25.719Z,101112.41
2022-08-02T05:19:43.136Z,101107.44
2022-08-02T05:21:00.767Z,101111.61
2022-08-02T05:22:19.777Z,101116.44
2022-08-02T05:23:37.507Z,101116.50
2022-08-02T05:24:56.507Z,101122.83
2022-08-02T05:26:15.364Z,101120.58
2022-08-02T05:27:32.690Z,101120.27
2022-08-02T05:28:52.187Z,101114.00
2022-08-02T05:30:09.835Z,101108.62
2022-08-02T05:31:29.182Z,101112.71
2022-08-02T05:32:46.571Z,101112.39
2022-08-02T05:34:05.789Z,101107.16
2022-08-02T05:35:27.684Z,101109.31
2022-08-02T05:36:46.915Z,101107.87
2022-08-02T05:38:10.199Z,101102.89
2022-08-02T05:39:31.768Z,101104.46
2022-08-02T05:40:54.438Z,101106.72
2022-08-02T05:42:11.758Z,101103.02
2022-08-02T05:43:32.292Z,101098.03
2022-08-02T05:44:50.170Z,101101.80
2022-08-02T05:46:07.506Z,101101.26
2022-08-02T05:47:24.877Z,101109.20
2022-08-02T05:48:42.276Z,101115.41
2022-08-02T05:49:59.949Z,101122.29
2022-08-02T05:51:18.861Z,101126.15
2022-08-02T05:52:36.229Z,101123.09
2022-08-02T05:53:53.601Z,101125.67
2022-08-02T05:55:11.512Z,101119.72
2022-08-02T05:56:28.935Z,101121.16
2022-08-02T05:57:46.374Z,101116.11
2022-08-02T05:59:03.767Z,101116.21
2022-08-02T06:00:22.166Z,101119.07
2022-08-02T06:01:41.370Z,101115.63
2022-08-02T06:03:00.305Z,101109.20
2022-08-02T06:04:19.134Z,101108.62
2022-08-02T06:05:38.017Z,101111.36
2022-08-02T06:06:58.106Z,101102.11
2022-08-02T06:08:15.527Z,101097.95
2022-08-02T06:09:33.359Z,101100.91
2022-08-02T06:10:51.759Z,101097.03
2022-08-02T06:12:09.113Z,101104.58
2022-08-02T06:13:26.528Z,101102.81
2022-08-02T06:14:44.399Z,101106.20
2022-08-02T06:16:01.746Z,101098.22
2022-08-02T06:17:20.589Z,101095.75
2022-08-02T06:18:38.014Z,101093.72
2022-08-02T06:19:57.211Z,101097.27
2022-08-02T06:22:31.324Z,101096.68
2022-08-02T06:22:39.282Z,101096.69
2022-08-02T06:23:58.832Z,101096.37
2022-08-02T06:28:29.418Z,101099.19
2022-08-02T06:29:48.717Z,101100.80
2022-08-02T06:31:07.566Z,101099.74
2022-08-02T06:32:26.427Z,101103.98
2022-08-02T06:33:43.778Z,101102.22
2022-08-02T06:35:01.609Z,101101.32
2022-08-02T06:36:19.471Z,101101.97
2022-08-02T06:37:39.129Z,101102.84
2022-08-02T06:38:57.610Z,101105.41
2022-08-02T06:40:15.856Z,101103.58
2022-08-02T06:41:36.833Z,101104.35
2022-08-02T06:42:55.433Z,101102.17
2022-08-02T06:44:45.597Z,101104.19
2022-08-02T06:45:36.117Z,101105.39
2022-08-02T06:47:11.764Z,101098.47
2022-08-02T06:48:17.731Z,101096.88
2022-08-02T06:49:51.346Z,101093.88
2022-08-02T06:50:57.564Z,101092.59
2022-08-02T06:52:18.984Z,101092.98
2022-08-02T06:53:37.296Z,101090.56
2022-08-02T06:54:57.399Z,101091.62
2022-08-02T06:56:14.823Z,101091.76
2022-08-02T06:57:38.631Z,101090.16
2022-08-02T06:59:04.334Z,101094.02
2022-08-02T07:00:27.045Z,101090.31
2022-08-02T07:01:48.882Z,101090.22
2022-08-02T07:03:07.701Z,101087.84
2022-08-02T07:04:25.141Z,101086.75
2022-08-02T07:05:42.642Z,101088.45
2022-08-02T07:07:01.765Z,101091.51
2022-08-02T07:08:19.133Z,101095.11
2022-08-02T07:09:36.517Z,101098.17
2022-08-02T07:10:55.904Z,101100.16
2022-08-02T07:12:13.565Z,101098.98
2022-08-02T07:13:35.656Z,101102.00
2022-08-02T07:14:55.398Z,101097.98
2022-08-02T07:16:12.756Z,101093.88
2022-08-02T07:17:31.639Z,101089.47
2022-08-02T07:18:51.018Z,101086.06
2022-08-02T07:20:14.155Z,101086.38
2022-08-02T07:21:57.731Z,101080.20
2022-08-02T07:22:57.987Z,101081.20
2022-08-02T07:24:17.361Z,101083.07
2022-08-02T07:26:03.355Z,101081.11
2022-08-02T07:27:14.140Z,101080.62
2022-08-02T07:28:24.690Z,101080.63
2022-08-02T07:29:46.859Z,101081.31
2022-08-02T07:31:08.266Z,101081.77
2022-08-02T07:32:29.391Z,101075.43
2022-08-02T07:33:55.037Z,101082.05
2022-08-02T07:35:21.010Z,101083.28
2022-08-02T07:36:44.888Z,101082.96
2022-08-02T07:38:10.305Z,101084.16
2022-08-02T07:39:32.059Z,101074.83
2022-08-02T07:40:56.993Z,101083.25
2022-08-02T07:42:14.704Z,101083.26
2022-08-02T07:43:36.448Z,101091.20
2022-08-02T07:44:56.175Z,101086.28
2022-08-02T07:46:14.781Z,101088.22
2022-08-02T07:47:34.358Z,101084.41
2022-08-02T07:48:55.955Z,101084.36
2022-08-02T07:50:28.622Z,101082.07
2022-08-02T07:51:46.556Z,101082.07
2022-08-02T07:53:04.696Z,101072.36
2022-08-02T07:54:24.375Z,101076.28
2022-08-02T07:55:43.898Z,101076.06
2022-08-02T07:57:00.462Z,101073.70
2022-08-02T07:58:20.705Z,101072.58
2022-08-02T08:01:35.027Z,101082.75
2022-08-02T08:02:58.885Z,101086.58
2022-08-02T08:04:17.986Z,101083.62
2022-08-02T08:05:39.145Z,101075.64
2022-08-02T08:07:01.382Z,101077.09
2022-08-02T08:08:18.866Z,101072.97
2022-08-02T08:09:38.198Z,101069.27
2022-08-02T08:10:57.068Z,101062.20
2022-08-02T08:12:17.743Z,101061.30
2022-08-02T08:13:39.895Z,101063.38
2022-08-02T08:14:57.923Z,101064.12
2022-08-02T08:16:17.633Z,101065.31
2022-08-02T08:17:38.181Z,101062.42
2022-08-02T08:18:56.351Z,101060.91
2022-08-02T08:20:18.711Z,101064.09
2022-08-02T08:21:37.792Z,101062.42
2022-08-02T08:22:57.438Z,101065.16
2022-08-02T08:26:15.547Z,101065.73
2022-08-02T08:27:40.081Z,101067.25
2022-08-02T08:29:03.037Z,101061.55
2022-08-02T08:30:27.869Z,101062.91
2022-08-02T08:31:47.070Z,101057.53
2022-08-02T08:33:14.293Z,101054.86
2022-08-02T08:34:33.202Z,101051.80
2022-08-02T08:35:54.252Z,101044.08
2022-08-02T08:37:17.137Z,101045.37
2022-08-02T08:40:25.800Z,101050.55
2022-08-02T08:41:43.622Z,101046.49
2022-08-02T08:43:09.928Z,101048.20
2022-08-02T08:44:33.732Z,101047.59
2022-08-02T08:47:44.094Z,101045.08
2022-08-02T08:49:04.219Z,101047.78
2022-08-02T08:50:26.075Z,101045.85
2022-08-02T08:53:38.191Z,101041.05
2022-08-02T08:54:59.407Z,101039.52
2022-08-02T08:56:20.168Z,101043.38
2022-08-02T08:57:39.146Z,101042.38
2022-08-02T08:59:00.246Z,101046.39
2022-08-02T09:04:01.067Z,101041.38
2022-08-02T09:05:18.799Z,101047.48
2022-08-02T09:06:36.799Z,101046.81
2022-08-02T09:07:54.851Z,101048.00
2022-08-02T09:09:27.353Z,101048.48
2022-08-02T09:10:44.818Z,101047.27
2022-08-02T09:12:02.285Z,101039.55
2022-08-02T09:13:38.418Z,101038.48
2022-08-02T09:14:45.034Z,101038.32
2022-08-02T09:16:11.105Z,101033.34
2022-08-02T09:17:28.716Z,101033.50
2022-08-02T09:18:49.361Z,101029.89
2022-08-02T09:20:05.895Z,101029.41
2022-08-02T09:23:12.990Z,101023.97
2022-08-02T09:28:16.043Z,101024.94
2022-08-02T09:29:48.633Z,101019.79
2022-08-02T09:32:48.406Z,101019.95
2022-08-02T09:34:07.738Z,101016.16
2022-08-02T09:35:27.560Z,101022.17
2022-08-02T09:36:55.951Z,101026.42
2022-08-02T09:40:05.552Z,101023.62
2022-08-02T09:46:56.816Z,101021.23
2022-08-02T09:48:14.245Z,101024.68
2022-08-02T09:49:32.781Z,101026.03
2022-08-02T09:50:55.354Z,101024.27
2022-08-02T09:52:13.662Z,101019.83
2022-08-02T09:53:32.410Z,101019.15
2022-08-02T09:54:50.706Z,101015.87
2022-08-02T09:56:29.232Z,101019.15
2022-08-02T09:57:33.890Z,101015.70
2022-08-02T09:58:52.239Z,101016.73
2022-08-02T10:00:14.220Z,101015.45
2022-08-02T10:01:37.445Z,101020.27
2022-08-02T10:02:54.001Z,101014.06
2022-08-02T10:04:20.555Z,101012.55
2022-08-02T10:05:56.085Z,101016.16
2022-08-02T10:07:10.925Z,101012.30
2022-08-02T10:08:29.963Z,101018.80
2022-08-02T10:09:50.936Z,101018.09
2022-08-02T10:11:09.531Z,101020.47
2022-08-02T10:12:28.607Z,101021.11
2022-08-02T10:13:47.737Z,101020.79
2022-08-02T10:15:07.676Z,101026.26
2022-08-02T10:16:31.302Z,101024.48
2022-08-02T10:17:50.529Z,101016.99
2022-08-02T10:19:14.129Z,101018.77
2022-08-02T10:20:31.449Z,101015.22
2022-08-02T10:21:50.603Z,101008.14
2022-08-02T10:23:09.550Z,101011.14
2022-08-02T10:24:27.391Z,101009.75
2022-08-02T10:25:46.282Z,101011.62
2022-08-02T10:27:04.620Z,101007.11
2022-08-02T10:28:23.862Z,101002.12
2022-08-02T10:29:53.350Z,101005.95
2022-08-02T10:31:04.813Z,101003.86
2022-08-02T10:32:22.800Z,101003.70
2022-08-02T10:33:40.162Z,100999.20
2022-08-02T10:35:18.734Z,100994.95
2022-08-02T10:36:22.888Z,100998.88
2022-08-02T10:37:41.975Z,100992.77
2022-08-02T10:38:59.285Z,100996.69
2022-08-02T10:40:16.637Z,100996.62
2022-08-02T10:41:34.227Z,100996.59
2022-08-02T10:42:53.158Z,100999.65
2022-08-02T10:44:24.342Z,101003.57
2022-08-02T10:45:33.202Z,100999.00
2022-08-02T10:46:50.950Z,100994.56
2022-08-02T10:48:09.418Z,100997.14
2022-08-02T10:49:43.951Z,101000.29
2022-08-02T10:50:50.681Z,101000.67
2022-08-02T10:52:09.642Z,100998.27
2022-08-02T10:53:29.122Z,100996.27
2022-08-02T10:54:47.521Z,100998.59
2022-08-02T10:56:06.317Z,100996.33
2022-08-02T10:57:27.834Z,100995.30
2022-08-02T10:58:46.237Z,100997.04
2022-08-02T11:00:03.543Z,100990.77
2022-08-02T11:01:20.973Z,100993.34
2022-08-02T11:02:40.145Z,100992.80
2022-08-02T11:03:59.247Z,100997.68
2022-08-02T11:05:16.607Z,100996.23
2022-08-02T11:06:35.477Z,100996.08
2022-08-02T11:07:52.860Z,101006.38
2022-08-02T11:09:12.526Z,100986.97
2022-08-02T11:10:32.101Z,100988.90
2022-08-02T11:11:53.939Z,100994.95
2022-08-02T11:13:16.051Z,100987.12
2022-08-02T11:14:33.360Z,100989.38
2022-08-02T11:15:52.487Z,100982.84
2022-08-02T11:17:09.809Z,100981.39
2022-08-02T11:18:27.177Z,100986.22
2022-08-02T11:19:46.017Z,100983.33
2022-08-02T11:21:05.304Z,100985.09
2022-08-02T11:22:25.994Z,100985.09
2022-08-02T11:23:45.004Z,100982.69
2022-08-02T11:25:03.276Z,100986.61
2022-08-02T11:26:20.647Z,100982.27
2022-08-02T11:27:39.031Z,100983.06
2022-08-02T11:28:56.417Z,100982.04
2022-08-02T11:30:15.328Z,100976.62
2022-08-02T11:31:34.166Z,100975.44
2022-08-02T11:32:52.650Z,100980.66
2022-08-02T11:34:11.780Z,100979.91
2022-08-02T11:35:33.960Z,100970.20
2022-08-02T11:36:52.748Z,100977.27
2022-08-02T11:38:14.244Z,100974.44
2022-08-02T11:39:33.569Z,100978.14
2022-08-02T11:40:57.409Z,100975.31
2022-08-02T11:42:15.813Z,100977.23
2022-08-02T11:43:33.628Z,100971.61
2022-08-02T11:44:52.116Z,100974.34
2022-08-02T11:46:10.996Z,100970.58
2022-08-02T11:47:30.857Z,100973.60
2022-08-02T11:48:49.707Z,100969.13
2022-08-02T11:50:09.109Z,100966.39
2022-08-02T11:51:26.407Z,100968.88
2022-08-02T11:52:45.621Z,100970.22
2022-08-02T11:54:02.990Z,100974.34
2022-08-02T11:55:20.332Z,100983.26
2022-08-02T11:56:37.680Z,100978.05
2022-08-02T11:58:04.196Z,100976.98
2022-08-02T11:59:19.780Z,100965.39
2022-08-02T12:00:38.641Z,100964.75
2022-08-02T12:01:57.452Z,100973.12
2022-08-02T12:03:19.522Z,100971.03
2022-08-02T12:04:38.422Z,100971.67
2022-08-02T12:06:06.419Z,100966.84
2022-08-02T12:07:18.193Z,100964.81
2022-08-02T12:08:41.894Z,100957.09
2022-08-02T12:10:05.031Z,100963.95
2022-08-02T12:11:24.237Z,100963.49
2022-08-02T12:12:43.187Z,100964.30
2022-08-02T12:14:02.042Z,100961.02
2022-08-02T12:15:21.257Z,100960.44
2022-08-02T12:16:39.507Z,100959.47
2022-08-02T12:19:54.047Z,100954.12
2022-08-02T12:21:13.453Z,100956.83
2022-08-02T12:22:32.302Z,100957.86
2022-08-02T12:23:59.875Z,100958.12
2022-08-02T12:25:14.805Z,100956.31
2022-08-02T12:26:37.036Z,100956.80
2022-08-02T12:27:55.888Z,100958.14
2022-08-02T12:29:14.275Z,100960.11
2022-08-02T12:30:34.248Z,100958.88
2022-08-02T12:33:42.126Z,100953.22
2022-08-02T12:35:01.065Z,100951.27
2022-08-02T12:36:18.459Z,100955.83
2022-08-02T12:37:37.636Z,100956.73
2022-08-02T12:38:56.497Z,100948.91
2022-08-02T12:40:14.388Z,100958.08
2022-08-02T12:41:32.812Z,100955.19
2022-08-02T12:42:52.349Z,100959.66
2022-08-02T12:44:10.139Z,100960.66
2022-08-02T12:45:40.444Z,100959.05
2022-08-02T12:46:51.750Z,100956.95
2022-08-02T12:48:11.696Z,100948.64
2022-08-02T12:49:30.602Z,100949.45
2022-08-02T12:50:53.353Z,100950.48
2022-08-02T12:52:11.784Z,100951.92
2022-08-02T12:53:29.780Z,100948.88
2022-08-02T12:54:48.989Z,100950.90
2022-08-02T12:56:09.305Z,100947.42
2022-08-02T12:57:27.292Z,100947.68
2022-08-02T12:58:46.456Z,100948.35
2022-08-02T13:00:03.866Z,100942.59
2022-08-02T13:01:22.774Z,100946.13
2022-08-02T13:02:39.497Z,100942.49
2022-08-02T13:04:09.606Z,100940.23
2022-08-02T13:05:20.568Z,100947.06
2022-08-02T13:06:45.743Z,100943.69
2022-08-02T13:07:59.306Z,100944.59
2022-08-02T13:09:18.906Z,100934.67
2022-08-02T13:10:37.953Z,100938.37
2022-08-02T13:11:55.322Z,100935.47
2022-08-02T13:13:14.193Z,100934.19
2022-08-02T13:14:35.738Z,100932.83
2022-08-02T13:15:55.784Z,100937.72
2022-08-02T13:17:18.335Z,100940.30
2022-08-02T13:18:36.538Z,100936.77
2022-08-02T13:19:55.456Z,100939.56
2022-08-02T13:21:19.718Z,100934.73
2022-08-02T13:22:37.361Z,100931.61
2022-08-02T13:24:01.054Z,100930.16
2022-08-02T13:25:23.273Z,100932.80
2022-08-02T13:26:42.138Z,100926.84
2022-08-02T13:27:59.447Z,100927.48
2022-08-02T13:29:18.150Z,100932.64
2022-08-02T13:30:35.508Z,100926.91
2022-08-02T13:31:52.880Z,100928.12
2022-08-02T13:33:11.786Z,100927.55
2022-08-02T13:34:30.741Z,100922.88
2022-08-02T13:35:49.830Z,100918.53
2022-08-02T13:37:07.200Z,100919.56
2022-08-02T13:38:27.111Z,100916.50
2022-08-02T13:40:11.754Z,100914.51
2022-08-02T13:41:11.382Z,100919.14
2022-08-02T13:42:30.225Z,100913.44
2022-08-02T13:43:55.305Z,100908.84
2022-08-02T13:45:13.752Z,100914.80
2022-08-02T13:46:31.796Z,100913.92
2022-08-02T13:48:04.057Z,100902.40
2022-08-02T13:49:18.451Z,100908.71
2022-08-02T13:50:35.727Z,100907.33
2022-08-02T13:51:54.662Z,100900.02
2022-08-02T13:53:12.010Z,100901.11
2022-08-02T13:54:31.198Z,100900.98
2022-08-02T13:55:53.397Z,100901.91
2022-08-02T13:57:13.189Z,100892.52
2022-08-02T13:58:31.673Z,100895.57
2022-08-02T13:59:56.445Z,100890.58
2022-08-02T14:01:13.674Z,100889.78
2022-08-02T14:02:32.033Z,100888.33
2022-08-02T14:04:08.290Z,100888.39
2022-08-02T14:05:15.846Z,100886.30
2022-08-02T14:06:34.786Z,100883.40
2022-08-02T14:07:52.125Z,100886.36
2022-08-02T14:09:09.815Z,100888.38
2022-08-02T14:10:31.387Z,100884.84
2022-08-02T14:11:51.118Z,100888.03
2022-08-02T14:13:09.976Z,100891.50
2022-08-02T14:14:27.338Z,100887.86
2022-08-02T14:15:49.631Z,100884.97
2022-08-02T14:17:08.621Z,100881.20
2022-08-02T14:18:26.390Z,100885.45
2022-08-02T14:19:43.081Z,100880.88
2022-08-02T14:21:00.932Z,100884.00
2022-08-02T14:22:17.486Z,100881.69
2022-08-02T14:23:49.267Z,100881.27
2022-08-02T14:25:09.030Z,100878.14
2022-08-02T14:26:27.338Z,100878.05
2022-08-02T14:27:46.587Z,100879.66
2022-08-02T14:29:03.956Z,100877.46
2022-08-02T14:30:23.116Z,100880.94
2022-08-02T14:31:44.671Z,100875.62
2022-08-02T14:33:02.452Z,100875.95
2022-08-02T14:34:19.791Z,100873.11
2022-08-02T14:35:38.737Z,100876.70
2022-08-02T14:36:56.338Z,100877.46
2022-08-02T14:38:14.751Z,100875.27
2022-08-02T14:39:42.880Z,100869.67
2022-08-02T14:40:55.250Z,100867.90
2022-08-02T14:42:13.053Z,100865.32
2022-08-02T14:43:31.783Z,100862.88
2022-08-02T14:44:49.104Z,100859.20
2022-08-02T14:46:08.043Z,100857.66
2022-08-02T14:47:27.052Z,100853.31
2022-08-02T14:48:44.393Z,100856.11
2022-08-02T14:50:02.177Z,100859.17
2022-08-02T14:51:19.634Z,100852.73
2022-08-02T14:52:38.046Z,100859.07
2022-08-02T14:54:02.919Z,100862.55
2022-08-02T14:55:18.697Z,100859.65
2022-08-02T14:56:37.057Z,100855.36
2022-08-02T14:57:55.381Z,100855.30
2022-08-02T14:59:13.738Z,100855.14
2022-08-02T15:00:30.201Z,100860.20
2022-08-02T15:01:47.550Z,100859.61
2022-08-02T15:03:06.180Z,100852.15
2022-08-02T15:04:27.491Z,100855.89
2022-08-02T15:05:45.992Z,100850.90
2022-08-02T15:07:05.699Z,100850.25
2022-08-02T15:08:22.162Z,100844.94
2022-08-02T15:09:41.114Z,100849.93
2022-08-02T15:10:59.445Z,100846.23
2022-08-02T15:12:18.036Z,100848.74
2022-08-02T15:13:40.926Z,100838.34
2022-08-02T15:14:59.426Z,100840.21
2022-08-02T15:16:17.076Z,100837.31
2022-08-02T15:17:36.175Z,100837.54
2022-08-02T15:18:54.048Z,100836.73
2022-08-02T15:20:24.811Z,100839.89
2022-08-02T15:21:41.672Z,100836.09
2022-08-02T15:23:00.679Z,100829.75
2022-08-02T15:24:17.999Z,100830.33
2022-08-02T15:25:37.319Z,100834.42
2022-08-02T15:26:57.822Z,100829.43
2022-08-02T15:28:16.629Z,100828.24
2022-08-02T15:29:33.043Z,100828.41
2022-08-02T15:30:51.403Z,100823.25
2022-08-02T15:32:10.256Z,100825.19
2022-08-02T15:33:27.893Z,100830.66
2022-08-02T15:34:45.497Z,100830.98